sensor_id;sensor_type;location;lat;lon;timestamp;P1;durP1;ratioP1;P2;durP2;ratioP2
14530;SDS011;7352;50.866;4.366;2023-02-27T00:50:57;0.30;;;0.30;;
14530;SDS011;7352;50.866;4.366;2023-02-27T00:57:14;0.30;;;0.30;;
14530;SDS011;7352;50.866;4.366;2023-02-27T01:00:00;0.30;;;0.30;;
14530;SDS011;7352;50.866;4.366;2023-02-27T01:02:32;0.30;;;0.30;;
14530;SDS011;7352;50.866;4.366;2023-02-27T01:05:04;0.30;;;0.30;;
14530;SDS011;7352;50.866;4.366;2023-02-27T01:07:31;0.27;;;0.27;;
14530;SDS011;7352;50.866;4.366;2023-02-27T01:09:59;0.30;;;0.30;;
14530;SDS011;7352;50.866;4.366;2023-02-27T01:12:30;0.30;;;0.30;;
14530;SDS011;7352;50.866;4.366;2023-02-27T01:15:02;0.30;;;0.30;;
14530;SDS011;7352;50.866;4.366;2023-02-27T01:18:02;0.30;;;0.30;;
14530;SDS011;7352;50.866;4.366;2023-02-27T01:20:44;0.30;;;0.30;;
14530;SDS011;7352;50.866;4.366;2023-02-27T01:23:14;0.30;;;0.30;;
14530;SDS011;7352;50.866;4.366;2023-02-27T01:25:44;0.30;;;0.30;;
14530;SDS011;7352;50.866;4.366;2023-02-27T01:32:01;0.30;;;0.30;;
14530;SDS011;7352;50.866;4.366;2023-02-27T01:38:00;0.30;;;0.30;;
14530;SDS011;7352;50.866;4.366;2023-02-27T01:40:59;0.30;;;0.30;;
14530;SDS011;7352;50.866;4.366;2023-02-27T01:43:27;0.30;;;0.30;;
14530;SDS011;7352;50.866;4.366;2023-02-27T01:53:12;0.37;;;0.37;;
14530;SDS011;7352;50.866;4.366;2023-02-27T01:56:13;0.30;;;0.30;;
14530;SDS011;7352;50.866;4.366;2023-02-27T01:59:23;0.30;;;0.30;;
14530;SDS011;7352;50.866;4.366;2023-02-27T02:02:11;0.30;;;0.30;;
14530;SDS011;7352;50.866;4.366;2023-02-27T02:04:55;0.30;;;0.30;;
14530;SDS011;7352;50.866;4.366;2023-02-27T02:14:33;0.30;;;0.30;;
14530;SDS011;7352;50.866;4.366;2023-02-27T02:17:10;0.30;;;0.30;;
14530;SDS011;7352;50.866;4.366;2023-02-27T02:20:18;0.30;;;0.30;;
14530;SDS011;7352;50.866;4.366;2023-02-27T02:26:51;0.30;;;0.30;;
14530;SDS011;7352;50.866;4.366;2023-02-27T02:40:01;0.40;;;0.40;;
14530;SDS011;7352;50.866;4.366;2023-02-27T02:42:42;0.30;;;0.30;;
14530;SDS011;7352;50.866;4.366;2023-02-27T02:45:21;0.30;;;0.30;;
14530;SDS011;7352;50.866;4.366;2023-02-27T02:47:59;0.30;;;0.30;;
14530;SDS011;7352;50.866;4.366;2023-02-27T02:50:40;0.30;;;0.30;;
14530;SDS011;7352;50.866;4.366;2023-02-27T02:53:16;0.30;;;0.30;;
14530;SDS011;7352;50.866;4.366;2023-02-27T02:56:02;0.30;;;0.30;;
14530;SDS011;7352;50.866;4.366;2023-02-27T02:58:44;0.20;;;0.20;;
14530;SDS011;7352;50.866;4.366;2023-02-27T03:01:25;0.30;;;0.30;;
14530;SDS011;7352;50.866;4.366;2023-02-27T03:04:04;0.30;;;0.30;;
14530;SDS011;7352;50.866;4.366;2023-02-27T03:06:43;0.30;;;0.30;;
14530;SDS011;7352;50.866;4.366;2023-02-27T03:09:16;0.30;;;0.30;;
14530;SDS011;7352;50.866;4.366;2023-02-27T03:12:04;0.30;;;0.30;;
14530;SDS011;7352;50.866;4.366;2023-02-27T03:14:38;0.20;;;0.20;;
14530;SDS011;7352;50.866;4.366;2023-02-27T03:17:17;0.30;;;0.30;;
14530;SDS011;7352;50.866;4.366;2023-02-27T03:19:55;0.20;;;0.20;;
14530;SDS011;7352;50.866;4.366;2023-02-27T03:22:46;0.30;;;0.30;;
14530;SDS011;7352;50.866;4.366;2023-02-27T03:31:55;0.30;;;0.30;;
14530;SDS011;7352;50.866;4.366;2023-02-27T03:41:57;0.30;;;0.30;;
14530;SDS011;7352;50.866;4.366;2023-02-27T03:45:13;0.30;;;0.30;;
14530;SDS011;7352;50.866;4.366;2023-02-27T03:58:11;0.30;;;0.30;;
14530;SDS011;7352;50.866;4.366;2023-02-27T04:04:54;0.30;;;0.30;;
14530;SDS011;7352;50.866;4.366;2023-02-27T04:08:24;0.30;;;0.30;;
14530;SDS011;7352;50.866;4.366;2023-02-27T04:11:33;0.30;;;0.30;;
14530;SDS011;7352;50.866;4.366;2023-02-27T04:14:14;0.30;;;0.30;;
14530;SDS011;7352;50.866;4.366;2023-02-27T04:17:17;0.30;;;0.30;;
14530;SDS011;7352;50.866;4.366;2023-02-27T04:20:00;0.30;;;0.30;;
14530;SDS011;7352;50.866;4.366;2023-02-27T04:23:01;0.30;;;0.30;;
14530;SDS011;7352;50.866;4.366;2023-02-27T04:25:39;0.30;;;0.30;;
14530;SDS011;7352;50.866;4.366;2023-02-27T04:28:16;0.30;;;0.30;;
14530;SDS011;7352;50.866;4.366;2023-02-27T04:34:00;0.30;;;0.30;;
14530;SDS011;7352;50.866;4.366;2023-02-27T04:39:53;0.30;;;0.30;;
14530;SDS011;7352;50.866;4.366;2023-02-27T04:43:22;0.40;;;0.40;;
14530;SDS011;7352;50.866;4.366;2023-02-27T04:45:52;0.30;;;0.30;;
14530;SDS011;7352;50.866;4.366;2023-02-27T04:48:28;0.30;;;0.30;;
14530;SDS011;7352;50.866;4.366;2023-02-27T04:51:20;0.30;;;0.30;;
14530;SDS011;7352;50.866;4.366;2023-02-27T04:54:26;0.30;;;0.30;;
14530;SDS011;7352;50.866;4.366;2023-02-27T04:57:02;0.30;;;0.30;;
14530;SDS011;7352;50.866;4.366;2023-02-27T04:59:34;0.30;;;0.30;;
14530;SDS011;7352;50.866;4.366;2023-02-27T05:02:07;0.30;;;0.30;;
14530;SDS011;7352;50.866;4.366;2023-02-27T05:07:55;0.30;;;0.30;;
14530;SDS011;7352;50.866;4.366;2023-02-27T05:10:41;0.30;;;0.30;;
14530;SDS011;7352;50.866;4.366;2023-02-27T05:13:40;0.30;;;0.30;;
14530;SDS011;7352;50.866;4.366;2023-02-27T05:19:38;0.30;;;0.30;;
14530;SDS011;7352;50.866;4.366;2023-02-27T05:22:35;0.30;;;0.30;;
14530;SDS011;7352;50.866;4.366;2023-02-27T05:25:12;0.30;;;0.30;;
14530;SDS011;7352;50.866;4.366;2023-02-27T05:27:56;0.30;;;0.30;;
14530;SDS011;7352;50.866;4.366;2023-02-27T05:34:24;0.20;;;0.20;;
14530;SDS011;7352;50.866;4.366;2023-02-27T05:40:18;0.30;;;0.30;;
14530;SDS011;7352;50.866;4.366;2023-02-27T05:43:17;0.30;;;0.30;;
14530;SDS011;7352;50.866;4.366;2023-02-27T05:46:09;0.30;;;0.30;;
14530;SDS011;7352;50.866;4.366;2023-02-27T05:48:44;0.30;;;0.30;;
14530;SDS011;7352;50.866;4.366;2023-02-27T05:51:19;0.30;;;0.30;;
14530;SDS011;7352;50.866;4.366;2023-02-27T05:53:52;0.30;;;0.30;;
14530;SDS011;7352;50.866;4.366;2023-02-27T05:56:37;0.30;;;0.30;;
14530;SDS011;7352;50.866;4.366;2023-02-27T05:59:40;0.40;;;0.40;;
14530;SDS011;7352;50.866;4.366;2023-02-27T06:02:26;0.30;;;0.30;;
14530;SDS011;7352;50.866;4.366;2023-02-27T06:08:14;0.30;;;0.30;;
14530;SDS011;7352;50.866;4.366;2023-02-27T06:10:56;0.30;;;0.30;;
14530;SDS011;7352;50.866;4.366;2023-02-27T06:19:49;0.30;;;0.30;;
14530;SDS011;7352;50.866;4.366;2023-02-27T06:22:20;0.40;;;0.40;;
14530;SDS011;7352;50.866;4.366;2023-02-27T06:24:47;0.30;;;0.30;;
14530;SDS011;7352;50.866;4.366;2023-02-27T06:27:20;0.30;;;0.30;;
14530;SDS011;7352;50.866;4.366;2023-02-27T06:30:20;0.30;;;0.30;;
14530;SDS011;7352;50.866;4.366;2023-02-27T06:32:48;0.30;;;0.30;;
14530;SDS011;7352;50.866;4.366;2023-02-27T06:35:22;0.30;;;0.30;;
14530;SDS011;7352;50.866;4.366;2023-02-27T06:37:53;0.30;;;0.30;;
14530;SDS011;7352;50.866;4.366;2023-02-27T06:40:25;0.30;;;0.30;;
14530;SDS011;7352;50.866;4.366;2023-02-27T06:43:08;0.30;;;0.30;;
14530;SDS011;7352;50.866;4.366;2023-02-27T06:45:52;0.30;;;0.30;;
14530;SDS011;7352;50.866;4.366;2023-02-27T06:48:19;0.30;;;0.30;;
14530;SDS011;7352;50.866;4.366;2023-02-27T06:53:35;0.30;;;0.30;;
14530;SDS011;7352;50.866;4.366;2023-02-27T06:59:16;0.30;;;0.30;;
14530;SDS011;7352;50.866;4.366;2023-02-27T07:01:48;0.30;;;0.30;;
14530;SDS011;7352;50.866;4.366;2023-02-27T07:04:23;0.40;;;0.40;;
14530;SDS011;7352;50.866;4.366;2023-02-27T07:07:13;0.30;;;0.30;;
14530;SDS011;7352;50.866;4.366;2023-02-27T07:09:49;0.30;;;0.30;;
14530;SDS011;7352;50.866;4.366;2023-02-27T07:12:18;0.30;;;0.30;;
14530;SDS011;7352;50.866;4.366;2023-02-27T07:14:50;0.30;;;0.30;;
14530;SDS011;7352;50.866;4.366;2023-02-27T07:17:21;0.30;;;0.30;;
14530;SDS011;7352;50.866;4.366;2023-02-27T07:19:48;0.30;;;0.30;;
14530;SDS011;7352;50.866;4.366;2023-02-27T07:22:23;0.30;;;0.30;;
14530;SDS011;7352;50.866;4.366;2023-02-27T07:24:58;0.30;;;0.30;;
14530;SDS011;7352;50.866;4.366;2023-02-27T07:27:27;0.40;;;0.40;;
14530;SDS011;7352;50.866;4.366;2023-02-27T07:30:10;0.30;;;0.30;;
14530;SDS011;7352;50.866;4.366;2023-02-27T07:32:41;0.30;;;0.30;;
14530;SDS011;7352;50.866;4.366;2023-02-27T07:35:08;0.30;;;0.30;;
14530;SDS011;7352;50.866;4.366;2023-02-27T07:37:39;0.30;;;0.30;;
14530;SDS011;7352;50.866;4.366;2023-02-27T07:40:06;0.30;;;0.30;;
14530;SDS011;7352;50.866;4.366;2023-02-27T07:42:34;0.30;;;0.30;;
14530;SDS011;7352;50.866;4.366;2023-02-27T07:45:03;0.30;;;0.30;;
14530;SDS011;7352;50.866;4.366;2023-02-27T07:47:30;0.30;;;0.30;;
14530;SDS011;7352;50.866;4.366;2023-02-27T07:49:58;0.30;;;0.30;;
14530;SDS011;7352;50.866;4.366;2023-02-27T07:52:25;0.30;;;0.30;;
14530;SDS011;7352;50.866;4.366;2023-02-27T07:54:55;0.30;;;0.30;;
14530;SDS011;7352;50.866;4.366;2023-02-27T07:57:22;0.30;;;0.30;;
14530;SDS011;7352;50.866;4.366;2023-02-27T07:59:49;0.30;;;0.30;;
14530;SDS011;7352;50.866;4.366;2023-02-27T08:02:16;0.20;;;0.20;;
14530;SDS011;7352;50.866;4.366;2023-02-27T08:04:43;0.30;;;0.30;;
14530;SDS011;7352;50.866;4.366;2023-02-27T08:07:10;0.30;;;0.30;;
14530;SDS011;7352;50.866;4.366;2023-02-27T08:09:37;0.30;;;0.30;;
14530;SDS011;7352;50.866;4.366;2023-02-27T08:12:13;0.30;;;0.30;;
14530;SDS011;7352;50.866;4.366;2023-02-27T08:14:41;0.30;;;0.30;;
14530;SDS011;7352;50.866;4.366;2023-02-27T08:17:08;0.30;;;0.30;;
14530;SDS011;7352;50.866;4.366;2023-02-27T08:19:35;0.30;;;0.30;;
14530;SDS011;7352;50.866;4.366;2023-02-27T08:22:02;0.30;;;0.30;;
14530;SDS011;7352;50.866;4.366;2023-02-27T08:24:29;0.30;;;0.30;;
14530;SDS011;7352;50.866;4.366;2023-02-27T08:26:59;0.30;;;0.30;;
14530;SDS011;7352;50.866;4.366;2023-02-27T08:29:28;0.30;;;0.30;;
14530;SDS011;7352;50.866;4.366;2023-02-27T08:31:58;0.30;;;0.30;;
14530;SDS011;7352;50.866;4.366;2023-02-27T08:34:26;0.20;;;0.20;;
14530;SDS011;7352;50.866;4.366;2023-02-27T08:36:53;0.20;;;0.20;;
14530;SDS011;7352;50.866;4.366;2023-02-27T08:39:20;0.30;;;0.30;;
14530;SDS011;7352;50.866;4.366;2023-02-27T08:41:48;0.30;;;0.30;;
14530;SDS011;7352;50.866;4.366;2023-02-27T08:44:15;0.30;;;0.30;;
14530;SDS011;7352;50.866;4.366;2023-02-27T08:46:44;0.30;;;0.30;;
14530;SDS011;7352;50.866;4.366;2023-02-27T08:49:11;0.30;;;0.30;;
14530;SDS011;7352;50.866;4.366;2023-02-27T08:51:38;0.20;;;0.20;;
14530;SDS011;7352;50.866;4.366;2023-02-27T08:54:05;0.30;;;0.30;;
14530;SDS011;7352;50.866;4.366;2023-02-27T08:56:32;0.30;;;0.30;;
14530;SDS011;7352;50.866;4.366;2023-02-27T08:58:59;0.20;;;0.20;;
14530;SDS011;7352;50.866;4.366;2023-02-27T09:01:27;0.30;;;0.30;;
14530;SDS011;7352;50.866;4.366;2023-02-27T09:04:00;0.20;;;0.20;;
14530;SDS011;7352;50.866;4.366;2023-02-27T09:06:29;0.30;;;0.30;;
14530;SDS011;7352;50.866;4.366;2023-02-27T09:08:57;0.30;;;0.30;;
14530;SDS011;7352;50.866;4.366;2023-02-27T09:11:24;0.30;;;0.30;;
14530;SDS011;7352;50.866;4.366;2023-02-27T09:13:52;0.30;;;0.30;;
14530;SDS011;7352;50.866;4.366;2023-02-27T09:16:20;0.20;;;0.20;;
14530;SDS011;7352;50.866;4.366;2023-02-27T09:18:54;0.20;;;0.20;;
14530;SDS011;7352;50.866;4.366;2023-02-27T09:21:25;0.20;;;0.20;;
14530;SDS011;7352;50.866;4.366;2023-02-27T09:23:54;0.30;;;0.30;;
14530;SDS011;7352;50.866;4.366;2023-02-27T09:26:22;0.20;;;0.20;;
14530;SDS011;7352;50.866;4.366;2023-02-27T09:28:50;0.20;;;0.20;;
14530;SDS011;7352;50.866;4.366;2023-02-27T09:31:17;0.20;;;0.20;;
14530;SDS011;7352;50.866;4.366;2023-02-27T09:33:44;0.20;;;0.20;;
14530;SDS011;7352;50.866;4.366;2023-02-27T09:36:12;0.30;;;0.30;;
14530;SDS011;7352;50.866;4.366;2023-02-27T09:38:42;0.30;;;0.30;;
14530;SDS011;7352;50.866;4.366;2023-02-27T09:41:19;0.20;;;0.20;;
14530;SDS011;7352;50.866;4.366;2023-02-27T09:43:57;0.20;;;0.20;;
14530;SDS011;7352;50.866;4.366;2023-02-27T09:46:25;0.20;;;0.20;;
14530;SDS011;7352;50.866;4.366;2023-02-27T09:48:55;0.20;;;0.20;;
14530;SDS011;7352;50.866;4.366;2023-02-27T09:51:24;0.20;;;0.20;;
14530;SDS011;7352;50.866;4.366;2023-02-27T09:53:54;0.20;;;0.20;;
14530;SDS011;7352;50.866;4.366;2023-02-27T09:56:25;0.20;;;0.20;;
14530;SDS011;7352;50.866;4.366;2023-02-27T09:58:55;0.20;;;0.20;;
14530;SDS011;7352;50.866;4.366;2023-02-27T10:01:28;0.30;;;0.30;;
14530;SDS011;7352;50.866;4.366;2023-02-27T10:06:55;0.30;;;0.30;;
14530;SDS011;7352;50.866;4.366;2023-02-27T10:09:33;0.30;;;0.30;;
14530;SDS011;7352;50.866;4.366;2023-02-27T10:12:10;0.20;;;0.20;;
14530;SDS011;7352;50.866;4.366;2023-02-27T10:14:56;0.20;;;0.20;;
14530;SDS011;7352;50.866;4.366;2023-02-27T10:17:27;0.20;;;0.20;;
14530;SDS011;7352;50.866;4.366;2023-02-27T10:19:57;0.20;;;0.20;;
14530;SDS011;7352;50.866;4.366;2023-02-27T10:22:27;0.20;;;0.20;;
14530;SDS011;7352;50.866;4.366;2023-02-27T10:25:03;0.23;;;0.23;;
14530;SDS011;7352;50.866;4.366;2023-02-27T10:27:33;0.20;;;0.20;;
14530;SDS011;7352;50.866;4.366;2023-02-27T10:30:08;0.20;;;0.20;;
14530;SDS011;7352;50.866;4.366;2023-02-27T10:32:44;0.20;;;0.20;;
14530;SDS011;7352;50.866;4.366;2023-02-27T10:35:16;0.23;;;0.23;;
14530;SDS011;7352;50.866;4.366;2023-02-27T10:37:54;0.20;;;0.20;;
14530;SDS011;7352;50.866;4.366;2023-02-27T10:40:25;0.20;;;0.20;;
14530;SDS011;7352;50.866;4.366;2023-02-27T10:42:54;0.23;;;0.23;;
14530;SDS011;7352;50.866;4.366;2023-02-27T10:45:41;0.20;;;0.20;;
14530;SDS011;7352;50.866;4.366;2023-02-27T10:48:08;0.20;;;0.20;;
14530;SDS011;7352;50.866;4.366;2023-02-27T10:50:38;0.30;;;0.30;;
14530;SDS011;7352;50.866;4.366;2023-02-27T10:53:15;0.20;;;0.20;;
14530;SDS011;7352;50.866;4.366;2023-02-27T10:55:57;0.20;;;0.20;;
14530;SDS011;7352;50.866;4.366;2023-02-27T10:58:30;0.20;;;0.20;;
14530;SDS011;7352;50.866;4.366;2023-02-27T11:01:00;0.20;;;0.20;;
14530;SDS011;7352;50.866;4.366;2023-02-27T11:03:32;0.20;;;0.20;;
14530;SDS011;7352;50.866;4.366;2023-02-27T11:06:04;0.20;;;0.20;;
14530;SDS011;7352;50.866;4.366;2023-02-27T11:08:35;0.20;;;0.20;;
14530;SDS011;7352;50.866;4.366;2023-02-27T11:11:05;0.23;;;0.23;;
14530;SDS011;7352;50.866;4.366;2023-02-27T11:13:37;0.20;;;0.20;;
14530;SDS011;7352;50.866;4.366;2023-02-27T11:16:08;0.20;;;0.20;;
14530;SDS011;7352;50.866;4.366;2023-02-27T11:18:38;0.20;;;0.20;;
14530;SDS011;7352;50.866;4.366;2023-02-27T11:23:54;0.23;;;0.23;;
14530;SDS011;7352;50.866;4.366;2023-02-27T11:26:26;0.20;;;0.20;;
14530;SDS011;7352;50.866;4.366;2023-02-27T11:29:04;0.20;;;0.20;;
14530;SDS011;7352;50.866;4.366;2023-02-27T11:31:34;0.20;;;0.20;;
14530;SDS011;7352;50.866;4.366;2023-02-27T11:34:02;0.20;;;0.20;;
14530;SDS011;7352;50.866;4.366;2023-02-27T11:36:38;0.20;;;0.20;;
14530;SDS011;7352;50.866;4.366;2023-02-27T11:39:23;0.20;;;0.20;;
14530;SDS011;7352;50.866;4.366;2023-02-27T11:41:57;0.20;;;0.20;;
14530;SDS011;7352;50.866;4.366;2023-02-27T11:44:34;0.20;;;0.20;;
14530;SDS011;7352;50.866;4.366;2023-02-27T11:47:11;0.20;;;0.20;;
14530;SDS011;7352;50.866;4.366;2023-02-27T11:49:44;0.20;;;0.20;;
14530;SDS011;7352;50.866;4.366;2023-02-27T11:52:23;0.20;;;0.20;;
14530;SDS011;7352;50.866;4.366;2023-02-27T11:54:56;0.20;;;0.20;;
14530;SDS011;7352;50.866;4.366;2023-02-27T11:57:29;0.20;;;0.20;;
14530;SDS011;7352;50.866;4.366;2023-02-27T12:00:00;0.20;;;0.20;;
14530;SDS011;7352;50.866;4.366;2023-02-27T12:02:36;0.20;;;0.20;;
14530;SDS011;7352;50.866;4.366;2023-02-27T12:05:13;0.20;;;0.20;;
14530;SDS011;7352;50.866;4.366;2023-02-27T12:07:50;0.20;;;0.20;;
14530;SDS011;7352;50.866;4.366;2023-02-27T12:10:22;0.20;;;0.20;;
14530;SDS011;7352;50.866;4.366;2023-02-27T12:12:56;0.20;;;0.20;;
14530;SDS011;7352;50.866;4.366;2023-02-27T12:15:29;0.20;;;0.20;;
14530;SDS011;7352;50.866;4.366;2023-02-27T12:18:04;0.20;;;0.20;;
14530;SDS011;7352;50.866;4.366;2023-02-27T12:20:40;0.20;;;0.20;;
14530;SDS011;7352;50.866;4.366;2023-02-27T12:23:18;0.20;;;0.20;;
14530;SDS011;7352;50.866;4.366;2023-02-27T12:25:50;0.20;;;0.20;;
14530;SDS011;7352;50.866;4.366;2023-02-27T12:31:26;0.20;;;0.20;;
14530;SDS011;7352;50.866;4.366;2023-02-27T12:34:24;0.20;;;0.20;;
14530;SDS011;7352;50.866;4.366;2023-02-27T12:39:49;0.30;;;0.30;;
14530;SDS011;7352;50.866;4.366;2023-02-27T12:45:43;0.20;;;0.20;;
14530;SDS011;7352;50.866;4.366;2023-02-27T12:51:34;0.20;;;0.20;;
14530;SDS011;7352;50.866;4.366;2023-02-27T12:54:17;0.20;;;0.20;;
14530;SDS011;7352;50.866;4.366;2023-02-27T12:56:55;0.20;;;0.20;;
14530;SDS011;7352;50.866;4.366;2023-02-27T12:59:37;0.20;;;0.20;;
14530;SDS011;7352;50.866;4.366;2023-02-27T13:02:33;0.20;;;0.20;;
14530;SDS011;7352;50.866;4.366;2023-02-27T13:05:25;0.20;;;0.20;;
14530;SDS011;7352;50.866;4.366;2023-02-27T13:08:19;0.20;;;0.20;;
14530;SDS011;7352;50.866;4.366;2023-02-27T13:11:05;0.20;;;0.20;;
14530;SDS011;7352;50.866;4.366;2023-02-27T13:16:45;0.20;;;0.20;;
14530;SDS011;7352;50.866;4.366;2023-02-27T13:19:25;0.20;;;0.20;;
14530;SDS011;7352;50.866;4.366;2023-02-27T13:22:00;0.20;;;0.20;;
14530;SDS011;7352;50.866;4.366;2023-02-27T13:24:40;0.20;;;0.20;;
14530;SDS011;7352;50.866;4.366;2023-02-27T13:27:20;0.20;;;0.20;;
14530;SDS011;7352;50.866;4.366;2023-02-27T13:30:04;0.20;;;0.20;;
14530;SDS011;7352;50.866;4.366;2023-02-27T13:33:05;0.20;;;0.20;;
14530;SDS011;7352;50.866;4.366;2023-02-27T13:35:49;0.20;;;0.20;;
14530;SDS011;7352;50.866;4.366;2023-02-27T13:38:34;0.20;;;0.20;;
14530;SDS011;7352;50.866;4.366;2023-02-27T13:41:37;0.20;;;0.20;;
14530;SDS011;7352;50.866;4.366;2023-02-27T13:53:56;0.10;;;0.10;;
14530;SDS011;7352;50.866;4.366;2023-02-27T13:59:55;0.20;;;0.20;;
14530;SDS011;7352;50.866;4.366;2023-02-27T14:02:49;0.20;;;0.20;;
14530;SDS011;7352;50.866;4.366;2023-02-27T14:05:28;0.20;;;0.20;;
14530;SDS011;7352;50.866;4.366;2023-02-27T14:11:15;0.20;;;0.20;;
14530;SDS011;7352;50.866;4.366;2023-02-27T14:14:22;0.20;;;0.20;;
14530;SDS011;7352;50.866;4.366;2023-02-27T14:20:12;0.20;;;0.20;;
14530;SDS011;7352;50.866;4.366;2023-02-27T14:23:19;0.20;;;0.20;;
14530;SDS011;7352;50.866;4.366;2023-02-27T14:26:18;0.10;;;0.10;;
14530;SDS011;7352;50.866;4.366;2023-02-27T14:28:55;0.13;;;0.13;;
14530;SDS011;7352;50.866;4.366;2023-02-27T14:31:27;0.10;;;0.10;;
14530;SDS011;7352;50.866;4.366;2023-02-27T14:33:57;0.13;;;0.13;;
14530;SDS011;7352;50.866;4.366;2023-02-27T14:36:30;0.20;;;0.20;;
14530;SDS011;7352;50.866;4.366;2023-02-27T14:39:02;0.30;;;0.30;;
14530;SDS011;7352;50.866;4.366;2023-02-27T14:41:34;0.20;;;0.20;;
14530;SDS011;7352;50.866;4.366;2023-02-27T14:44:14;0.20;;;0.20;;
14530;SDS011;7352;50.866;4.366;2023-02-27T14:46:46;0.20;;;0.20;;
14530;SDS011;7352;50.866;4.366;2023-02-27T14:49:18;0.20;;;0.20;;
14530;SDS011;7352;50.866;4.366;2023-02-27T14:51:47;0.20;;;0.20;;
14530;SDS011;7352;50.866;4.366;2023-02-27T14:54:16;0.17;;;0.17;;
14530;SDS011;7352;50.866;4.366;2023-02-27T14:56:54;0.20;;;0.20;;
14530;SDS011;7352;50.866;4.366;2023-02-27T14:59:23;0.20;;;0.20;;
14530;SDS011;7352;50.866;4.366;2023-02-27T15:01:53;0.20;;;0.20;;
14530;SDS011;7352;50.866;4.366;2023-02-27T15:04:23;0.20;;;0.20;;
14530;SDS011;7352;50.866;4.366;2023-02-27T15:06:53;0.10;;;0.10;;
14530;SDS011;7352;50.866;4.366;2023-02-27T15:09:22;0.20;;;0.20;;
14530;SDS011;7352;50.866;4.366;2023-02-27T15:11:54;0.20;;;0.20;;
14530;SDS011;7352;50.866;4.366;2023-02-27T15:14:25;0.13;;;0.13;;
14530;SDS011;7352;50.866;4.366;2023-02-27T15:16:56;0.10;;;0.10;;
14530;SDS011;7352;50.866;4.366;2023-02-27T15:19:24;0.10;;;0.10;;
14530;SDS011;7352;50.866;4.366;2023-02-27T15:21:52;0.20;;;0.20;;
14530;SDS011;7352;50.866;4.366;2023-02-27T15:24:26;0.20;;;0.20;;
14530;SDS011;7352;50.866;4.366;2023-02-27T15:26:57;0.10;;;0.10;;
14530;SDS011;7352;50.866;4.366;2023-02-27T15:29:28;0.10;;;0.10;;
14530;SDS011;7352;50.866;4.366;2023-02-27T15:31:59;0.10;;;0.10;;
14530;SDS011;7352;50.866;4.366;2023-02-27T15:34:27;0.10;;;0.10;;
14530;SDS011;7352;50.866;4.366;2023-02-27T15:36:57;0.10;;;0.10;;
14530;SDS011;7352;50.866;4.366;2023-02-27T15:39:26;0.10;;;0.10;;
14530;SDS011;7352;50.866;4.366;2023-02-27T15:41:58;0.17;;;0.17;;
14530;SDS011;7352;50.866;4.366;2023-02-27T15:44:28;0.20;;;0.20;;
14530;SDS011;7352;50.866;4.366;2023-02-27T15:46:58;0.10;;;0.10;;
14530;SDS011;7352;50.866;4.366;2023-02-27T15:49:25;0.20;;;0.20;;
14530;SDS011;7352;50.866;4.366;2023-02-27T15:51:59;0.20;;;0.20;;
14530;SDS011;7352;50.866;4.366;2023-02-27T15:54:31;0.20;;;0.20;;
14530;SDS011;7352;50.866;4.366;2023-02-27T15:57:00;0.10;;;0.10;;
14530;SDS011;7352;50.866;4.366;2023-02-27T15:59:31;0.20;;;0.20;;
14530;SDS011;7352;50.866;4.366;2023-02-27T16:02:01;0.20;;;0.20;;
14530;SDS011;7352;50.866;4.366;2023-02-27T16:04:29;0.10;;;0.10;;
14530;SDS011;7352;50.866;4.366;2023-02-27T16:07:00;0.20;;;0.20;;
14530;SDS011;7352;50.866;4.366;2023-02-27T16:09:30;0.20;;;0.20;;
14530;SDS011;7352;50.866;4.366;2023-02-27T16:12:16;0.10;;;0.10;;
14530;SDS011;7352;50.866;4.366;2023-02-27T16:14:48;0.10;;;0.10;;
14530;SDS011;7352;50.866;4.366;2023-02-27T16:17:27;0.17;;;0.17;;
14530;SDS011;7352;50.866;4.366;2023-02-27T16:19:56;0.20;;;0.20;;
14530;SDS011;7352;50.866;4.366;2023-02-27T16:22:24;0.17;;;0.17;;
14530;SDS011;7352;50.866;4.366;2023-02-27T16:24:52;0.20;;;0.20;;
14530;SDS011;7352;50.866;4.366;2023-02-27T16:27:23;0.20;;;0.20;;
14530;SDS011;7352;50.866;4.366;2023-02-27T16:29:53;0.20;;;0.20;;
14530;SDS011;7352;50.866;4.366;2023-02-27T16:32:23;0.20;;;0.20;;
14530;SDS011;7352;50.866;4.366;2023-02-27T16:35:00;0.20;;;0.20;;
14530;SDS011;7352;50.866;4.366;2023-02-27T16:37:30;0.20;;;0.20;;
14530;SDS011;7352;50.866;4.366;2023-02-27T16:40:02;0.10;;;0.10;;
14530;SDS011;7352;50.866;4.366;2023-02-27T16:42:37;0.20;;;0.20;;
14530;SDS011;7352;50.866;4.366;2023-02-27T16:45:05;0.20;;;0.20;;
14530;SDS011;7352;50.866;4.366;2023-02-27T16:47:32;0.20;;;0.20;;
14530;SDS011;7352;50.866;4.366;2023-02-27T16:49:59;0.20;;;0.20;;
14530;SDS011;7352;50.866;4.366;2023-02-27T16:52:26;0.20;;;0.20;;
14530;SDS011;7352;50.866;4.366;2023-02-27T16:54:53;0.20;;;0.20;;
14530;SDS011;7352;50.866;4.366;2023-02-27T16:57:21;0.20;;;0.20;;
14530;SDS011;7352;50.866;4.366;2023-02-27T16:59:53;0.20;;;0.20;;
14530;SDS011;7352;50.866;4.366;2023-02-27T17:02:21;0.20;;;0.20;;
14530;SDS011;7352;50.866;4.366;2023-02-27T17:04:48;0.20;;;0.20;;
14530;SDS011;7352;50.866;4.366;2023-02-27T17:07:16;0.20;;;0.20;;
14530;SDS011;7352;50.866;4.366;2023-02-27T17:09:44;0.20;;;0.20;;
14530;SDS011;7352;50.866;4.366;2023-02-27T17:12:12;0.27;;;0.27;;
14530;SDS011;7352;50.866;4.366;2023-02-27T17:14:40;0.20;;;0.20;;
14530;SDS011;7352;50.866;4.366;2023-02-27T17:17:11;0.20;;;0.20;;
14530;SDS011;7352;50.866;4.366;2023-02-27T17:19:39;0.20;;;0.20;;
14530;SDS011;7352;50.866;4.366;2023-02-27T17:22:06;0.20;;;0.20;;
14530;SDS011;7352;50.866;4.366;2023-02-27T17:24:39;0.20;;;0.20;;
14530;SDS011;7352;50.866;4.366;2023-02-27T17:27:06;0.20;;;0.20;;
14530;SDS011;7352;50.866;4.366;2023-02-27T17:29:36;0.20;;;0.20;;
14530;SDS011;7352;50.866;4.366;2023-02-27T17:32:05;0.20;;;0.20;;
14530;SDS011;7352;50.866;4.366;2023-02-27T17:34:38;0.20;;;0.20;;
14530;SDS011;7352;50.866;4.366;2023-02-27T17:37:07;0.20;;;0.20;;
14530;SDS011;7352;50.866;4.366;2023-02-27T17:39:35;0.20;;;0.20;;
14530;SDS011;7352;50.866;4.366;2023-02-27T17:42:25;0.20;;;0.20;;
14530;SDS011;7352;50.866;4.366;2023-02-27T17:45:01;0.20;;;0.20;;
14530;SDS011;7352;50.866;4.366;2023-02-27T17:47:43;0.20;;;0.20;;
14530;SDS011;7352;50.866;4.366;2023-02-27T17:50:23;0.20;;;0.20;;
14530;SDS011;7352;50.866;4.366;2023-02-27T17:52:53;0.20;;;0.20;;
14530;SDS011;7352;50.866;4.366;2023-02-27T17:55:20;0.20;;;0.20;;
14530;SDS011;7352;50.866;4.366;2023-02-27T17:57:47;0.20;;;0.20;;
14530;SDS011;7352;50.866;4.366;2023-02-27T18:00:15;0.20;;;0.20;;
14530;SDS011;7352;50.866;4.366;2023-02-27T18:02:43;0.20;;;0.20;;
14530;SDS011;7352;50.866;4.366;2023-02-27T18:05:12;0.20;;;0.20;;
14530;SDS011;7352;50.866;4.366;2023-02-27T18:07:40;0.20;;;0.20;;
14530;SDS011;7352;50.866;4.366;2023-02-27T18:10:13;0.20;;;0.20;;
14530;SDS011;7352;50.866;4.366;2023-02-27T18:12:44;0.20;;;0.20;;
14530;SDS011;7352;50.866;4.366;2023-02-27T18:15:13;0.20;;;0.20;;
14530;SDS011;7352;50.866;4.366;2023-02-27T18:17:43;0.20;;;0.20;;
14530;SDS011;7352;50.866;4.366;2023-02-27T18:20:15;0.20;;;0.20;;
14530;SDS011;7352;50.866;4.366;2023-02-27T18:22:55;0.20;;;0.20;;
14530;SDS011;7352;50.866;4.366;2023-02-27T18:28:14;0.20;;;0.20;;
14530;SDS011;7352;50.866;4.366;2023-02-27T18:30:59;0.20;;;0.20;;
14530;SDS011;7352;50.866;4.366;2023-02-27T18:36:18;0.20;;;0.20;;
14530;SDS011;7352;50.866;4.366;2023-02-27T18:38:48;0.20;;;0.20;;
14530;SDS011;7352;50.866;4.366;2023-02-27T18:41:15;0.20;;;0.20;;
14530;SDS011;7352;50.866;4.366;2023-02-27T18:43:42;0.10;;;0.10;;
14530;SDS011;7352;50.866;4.366;2023-02-27T18:46:09;0.20;;;0.20;;
14530;SDS011;7352;50.866;4.366;2023-02-27T18:48:37;0.20;;;0.20;;
14530;SDS011;7352;50.866;4.366;2023-02-27T18:51:05;0.20;;;0.20;;
14530;SDS011;7352;50.866;4.366;2023-02-27T18:53:36;0.20;;;0.20;;
14530;SDS011;7352;50.866;4.366;2023-02-27T18:56:07;0.20;;;0.20;;
14530;SDS011;7352;50.866;4.366;2023-02-27T18:58:35;0.20;;;0.20;;
14530;SDS011;7352;50.866;4.366;2023-02-27T19:01:07;0.20;;;0.20;;
14530;SDS011;7352;50.866;4.366;2023-02-27T19:03:42;0.20;;;0.20;;
14530;SDS011;7352;50.866;4.366;2023-02-27T19:06:10;0.20;;;0.20;;
14530;SDS011;7352;50.866;4.366;2023-02-27T19:08:37;0.20;;;0.20;;